createdAt,value
2019-05-01T00:00:18.078Z,5.23
2019-05-01T00:02:48.186Z,5.30
2019-05-01T00:05:21.117Z,4.90
2019-05-01T00:07:49.534Z,5.10
2019-05-01T00:10:20.884Z,5.20
2019-05-01T00:12:49.289Z,5.60
2019-05-01T00:15:20.615Z,6.10
2019-05-01T00:17:49.174Z,5.37
2019-05-01T00:20:17.763Z,5.30
2019-05-01T00:22:46.186Z,5.73
2019-05-01T00:25:14.738Z,5.33
2019-05-01T00:27:43.151Z,5.70
2019-05-01T00:30:13.373Z,5.23
2019-05-01T00:32:41.799Z,5.87
2019-05-01T00:35:10.288Z,5.90
2019-05-01T00:37:38.697Z,6.03
2019-05-01T00:40:07.348Z,6.10
2019-05-01T00:42:35.760Z,6.27
2019-05-01T00:45:06.121Z,6.27
2019-05-01T00:47:34.702Z,6.27
2019-05-01T00:50:04.350Z,6.93
2019-05-01T00:52:32.762Z,6.97
2019-05-01T00:55:19.167Z,6.77
2019-05-01T00:57:57.958Z,6.07
2019-05-01T01:00:42.552Z,6.37
2019-05-01T01:03:00.985Z,7.07
2019-05-01T01:05:29.395Z,7.40
2019-05-01T01:07:57.825Z,7.67
2019-05-01T01:10:26.327Z,7.33
2019-05-01T01:12:54.804Z,8.03
2019-05-01T01:15:23.257Z,7.40
2019-05-01T01:17:51.670Z,6.23
2019-05-01T01:20:20.096Z,6.50
2019-05-01T01:22:48.514Z,5.77
2019-05-01T01:25:16.933Z,5.70
2019-05-01T01:27:45.597Z,5.33
2019-05-01T01:30:14.485Z,5.57
2019-05-01T01:32:42.974Z,5.37
2019-05-01T01:35:12.044Z,5.83
2019-05-01T01:37:40.567Z,5.73
2019-05-01T01:40:10.262Z,5.63
2019-05-01T01:42:39.758Z,5.60
2019-05-01T01:45:28.144Z,5.83
2019-05-01T01:48:09.620Z,6.10
2019-05-01T01:50:39.819Z,6.20
2019-05-01T01:53:08.873Z,5.90
2019-05-01T01:55:38.197Z,5.90
2019-05-01T01:58:07.619Z,6.00
2019-05-01T02:00:47.465Z,5.97
2019-05-01T02:03:16.329Z,6.27
2019-05-01T02:05:45.098Z,6.27
2019-05-01T02:08:13.757Z,5.87
2019-05-01T02:10:43.331Z,5.63
2019-05-01T02:13:12.300Z,6.60
2019-05-01T02:15:40.710Z,6.80
2019-05-01T02:18:09.270Z,7.10
2019-05-01T02:20:37.694Z,6.67
2019-05-01T02:23:06.181Z,6.53
2019-05-01T02:25:36.902Z,6.87
2019-05-01T02:28:24.997Z,6.70
2019-05-01T02:31:27.240Z,7.23
2019-05-01T02:33:43.678Z,7.80
2019-05-01T02:36:13.825Z,6.53
2019-05-01T02:38:44.804Z,6.53
2019-05-01T02:41:15.754Z,6.50
2019-05-01T02:43:47.247Z,5.90
2019-05-01T02:46:18.394Z,6.17
2019-05-01T02:49:06.650Z,6.40
2019-05-01T02:51:38.445Z,6.53
2019-05-01T02:54:08.216Z,6.70
2019-05-01T02:56:44.374Z,6.67
2019-05-01T02:59:13.423Z,6.30
2019-05-01T03:01:46.883Z,6.20
2019-05-01T03:04:12.738Z,5.90
2019-05-01T03:06:41.373Z,6.43
2019-05-01T03:09:09.940Z,6.40
2019-05-01T03:11:40.365Z,6.30
2019-05-01T03:14:11.925Z,7.33
2019-05-01T03:16:40.882Z,7.70
2019-05-01T03:19:30.950Z,6.30
2019-05-01T03:22:04.210Z,5.67
2019-05-01T03:24:32.895Z,6.37
2019-05-01T03:27:02.047Z,5.90
2019-05-01T03:29:30.526Z,6.13
2019-05-01T03:32:17.205Z,5.57
2019-05-01T03:34:29.531Z,5.77
2019-05-01T03:36:57.943Z,6.53
2019-05-01T03:39:27.124Z,6.93
2019-05-01T03:41:56.595Z,7.10
2019-05-01T03:44:25.096Z,6.67
2019-05-01T03:46:53.849Z,7.00
2019-05-01T03:49:22.620Z,6.57
2019-05-01T03:51:51.054Z,6.33
2019-05-01T03:54:19.537Z,6.57
2019-05-01T03:56:48.590Z,6.63
2019-05-01T03:59:17.441Z,6.80
2019-05-01T04:01:47.674Z,6.17
2019-05-01T04:04:17.931Z,6.40
2019-05-01T04:06:46.988Z,5.97
2019-05-01T04:09:15.671Z,6.10
2019-05-01T04:11:44.283Z,5.60
2019-05-01T04:14:13.129Z,6.80
2019-05-01T04:16:44.068Z,6.63
2019-05-01T04:19:13.539Z,6.00
2019-05-01T04:21:52.770Z,6.27
2019-05-01T04:24:21.454Z,6.13
2019-05-01T04:26:49.961Z,6.17
2019-05-01T04:29:22.880Z,6.37
2019-05-01T04:31:53.905Z,5.63
2019-05-01T04:34:23.964Z,6.00
2019-05-01T04:36:57.371Z,6.43
2019-05-01T04:39:25.955Z,6.63
2019-05-01T04:41:54.748Z,6.60
2019-05-01T04:44:23.611Z,6.30
2019-05-01T04:46:53.630Z,5.97
2019-05-01T04:49:22.589Z,6.60
2019-05-01T04:51:51.305Z,6.00
2019-05-01T04:54:20.249Z,6.10
2019-05-01T04:56:48.914Z,6.10
2019-05-01T04:59:17.561Z,6.03
2019-05-01T05:01:59.351Z,6.10
2019-05-01T05:04:29.070Z,6.03
2019-05-01T05:06:57.542Z,5.60
2019-05-01T05:09:43.514Z,6.40
2019-05-01T05:12:29.745Z,6.50
2019-05-01T05:15:09.010Z,6.50
2019-05-01T05:17:37.482Z,6.30
2019-05-01T05:20:07.419Z,6.40
2019-05-01T05:22:36.396Z,6.70
2019-05-01T05:25:05.946Z,6.50
2019-05-01T05:27:35.014Z,5.90
2019-05-01T05:30:04.436Z,5.87
2019-05-01T05:32:35.773Z,6.50
2019-05-01T05:35:05.677Z,5.93
2019-05-01T05:37:40.329Z,5.97
2019-05-01T05:40:08.797Z,6.40
2019-05-01T05:42:38.154Z,6.27
2019-05-01T05:45:07.606Z,5.80
2019-05-01T05:47:36.092Z,5.83
2019-05-01T05:50:06.306Z,6.00
2019-05-01T05:52:38.557Z,5.67
2019-05-01T05:55:24.829Z,6.43
2019-05-01T05:57:56.999Z,6.10
2019-05-01T06:00:28.169Z,6.10
2019-05-01T06:03:07.334Z,6.10
2019-05-01T06:05:55.509Z,6.23
2019-05-01T06:08:28.967Z,6.43
2019-05-01T06:11:20.470Z,6.53
2019-05-01T06:13:58.900Z,6.23
2019-05-01T06:16:40.242Z,6.60
2019-05-01T06:19:16.349Z,6.40
2019-05-01T06:22:04.988Z,6.03
2019-05-01T06:24:44.159Z,6.23
2019-05-01T06:27:13.743Z,6.37
2019-05-01T06:29:43.939Z,6.17
2019-05-01T06:32:12.383Z,6.90
2019-05-01T06:34:41.070Z,7.00
2019-05-01T06:37:09.483Z,6.78
2019-05-01T06:39:38.335Z,6.83
2019-05-01T06:42:09.903Z,6.75
2019-05-01T06:44:44.057Z,6.55
2019-05-01T06:47:13.021Z,7.13
2019-05-01T06:49:51.858Z,6.87
2019-05-01T06:52:25.070Z,6.62
2019-05-01T06:54:53.601Z,6.72
2019-05-01T06:57:24.269Z,7.03
2019-05-01T06:59:52.798Z,6.97
2019-05-01T07:02:21.344Z,7.33
2019-05-01T07:04:50.197Z,6.72
2019-05-01T07:07:25.523Z,6.85
2019-05-01T07:09:54.483Z,6.70
2019-05-01T07:12:28.322Z,7.12
2019-05-01T07:14:56.358Z,7.40
2019-05-01T07:17:24.789Z,7.15
2019-05-01T07:20:12.045Z,7.10
2019-05-01T07:22:42.262Z,7.87
2019-05-01T07:25:11.117Z,9.18
2019-05-01T07:27:39.675Z,8.38
2019-05-01T07:30:10.371Z,8.90
2019-05-01T07:32:41.038Z,7.58
2019-05-01T07:35:09.634Z,9.15
2019-05-01T07:37:38.113Z,8.90
2019-05-01T07:40:07.279Z,10.50
2019-05-01T07:42:52.379Z,11.05
2019-05-01T07:45:28.207Z,12.15
2019-05-01T07:48:01.095Z,10.43
2019-05-01T07:50:31.629Z,12.55
2019-05-01T07:52:58.657Z,10.65
2019-05-01T07:55:36.443Z,12.35
2019-05-01T07:58:10.581Z,14.28
2019-05-01T08:03:24.242Z,12.28
2019-05-01T08:05:52.662Z,11.53
2019-05-01T08:08:21.102Z,12.73
2019-05-01T08:10:49.578Z,13.10
2019-05-01T08:13:18.002Z,11.65
2019-05-01T08:15:46.489Z,11.63
2019-05-01T08:18:16.565Z,11.68
2019-05-01T08:20:52.269Z,10.80
2019-05-01T08:23:20.946Z,12.68
2019-05-01T08:25:49.391Z,10.43
2019-05-01T08:28:19.526Z,11.73
2019-05-01T08:30:55.515Z,12.47
2019-05-01T08:33:25.571Z,10.70
2019-05-01T08:35:53.993Z,12.20
2019-05-01T08:38:22.434Z,9.48
2019-05-01T08:40:55.542Z,11.57
2019-05-01T08:43:21.169Z,10.43
2019-05-01T08:46:07.397Z,13.65
2019-05-01T08:48:40.005Z,12.23
2019-05-01T08:51:08.446Z,11.55
2019-05-01T08:53:36.940Z,10.78
2019-05-01T08:56:05.347Z,12.73
2019-05-01T09:15:49.472Z,13.75
2019-05-01T09:18:18.922Z,13.72
2019-05-01T09:20:49.125Z,13.20
2019-05-01T09:23:17.665Z,12.37
2019-05-01T09:26:06.689Z,13.28
2019-05-01T09:28:35.978Z,14.20
2019-05-01T09:31:06.683Z,15.15
2019-05-01T09:33:35.107Z,14.50
2019-05-01T09:36:03.587Z,14.85
2019-05-01T09:38:32.138Z,14.07
2019-05-01T09:41:00.664Z,13.90
2019-05-01T09:43:30.972Z,15.35
2019-05-01T09:45:59.489Z,15.23
2019-05-01T09:48:28.167Z,14.45
2019-05-01T09:51:05.403Z,15.32
2019-05-01T09:53:41.794Z,14.78
2019-05-01T09:56:21.117Z,16.65
2019-05-01T09:58:49.570Z,16.55
2019-05-01T10:01:17.994Z,15.83
2019-05-01T10:03:49.553Z,16.32
2019-05-01T10:06:17.180Z,15.88
2019-05-01T10:08:45.873Z,14.63
2019-05-01T10:11:14.450Z,14.15
2019-05-01T10:13:42.875Z,13.60
2019-05-01T10:16:11.295Z,14.65
2019-05-01T10:18:39.862Z,13.75
2019-05-01T10:21:08.285Z,14.25
2019-05-01T10:23:36.720Z,15.08
2019-05-01T10:26:06.838Z,15.80
2019-05-01T10:28:39.342Z,13.43
2019-05-01T10:31:25.873Z,14.40
2019-05-01T10:34:13.770Z,14.38
2019-05-01T10:36:49.752Z,13.88
2019-05-01T10:39:19.770Z,16.93
2019-05-01T10:41:47.940Z,13.98
2019-05-01T10:44:16.862Z,16.97
2019-05-01T10:46:45.307Z,14.25
2019-05-01T10:49:13.731Z,15.40
2019-05-01T10:51:42.448Z,14.70
2019-05-01T10:54:10.873Z,14.98
2019-05-01T10:56:39.303Z,15.83
2019-05-01T10:59:07.858Z,14.93
2019-05-01T11:01:40.502Z,15.68
2019-05-01T11:04:09.011Z,15.55
2019-05-01T11:06:37.479Z,15.60
2019-05-01T11:09:07.654Z,15.95
2019-05-01T11:11:36.433Z,15.98
2019-05-01T11:14:05.263Z,16.45
2019-05-01T11:16:33.681Z,16.77
2019-05-01T11:19:02.106Z,17.27
2019-05-01T11:21:30.640Z,16.95
2019-05-01T11:23:59.173Z,15.08
2019-05-01T11:26:27.770Z,15.18
2019-05-01T11:28:56.282Z,14.65
2019-05-01T11:31:35.593Z,14.90
2019-05-01T11:34:08.593Z,15.65
2019-05-01T11:36:38.672Z,15.75
2019-05-01T11:39:14.883Z,15.28
2019-05-01T11:41:44.956Z,14.30
2019-05-01T11:44:13.387Z,13.93
2019-05-01T11:46:41.866Z,13.15
2019-05-01T11:49:10.294Z,12.68
2019-05-01T11:51:38.723Z,11.48
2019-05-01T11:54:07.169Z,12.68
2019-05-01T11:56:35.605Z,10.95
2019-05-01T11:59:04.234Z,11.43
2019-05-01T12:01:32.805Z,10.70
2019-05-01T12:04:01.230Z,10.30
2019-05-01T12:06:29.651Z,10.38
2019-05-01T12:08:58.121Z,9.65
2019-05-01T12:11:28.233Z,10.43
2019-05-01T12:13:56.657Z,10.90
2019-05-01T12:16:42.911Z,10.65
2019-05-01T12:19:11.650Z,10.55
2019-05-01T12:21:40.074Z,10.10
2019-05-01T12:24:08.699Z,9.90
2019-05-01T12:26:37.194Z,10.60
2019-05-01T12:29:05.697Z,10.93
2019-05-01T12:31:34.141Z,9.70
2019-05-01T12:34:02.558Z,8.83
2019-05-01T12:36:36.534Z,9.03
2019-05-01T12:39:01.279Z,9.50
2019-05-01T12:41:34.167Z,9.15
2019-05-01T12:46:42.889Z,9.58
2019-05-01T12:49:12.279Z,8.53
2019-05-01T12:51:42.414Z,9.50
2019-05-01T12:54:18.483Z,8.58
2019-05-01T12:56:48.576Z,8.65
2019-05-01T12:59:17.159Z,8.90
2019-05-01T13:01:45.715Z,8.53
2019-05-01T13:04:14.146Z,9.53
2019-05-01T13:06:49.273Z,9.33
2019-05-01T13:09:12.798Z,8.63
2019-05-01T13:11:41.221Z,9.05
2019-05-01T13:14:09.658Z,9.48
2019-05-01T13:16:38.247Z,9.68
2019-05-01T13:19:06.670Z,8.95
2019-05-01T13:21:35.101Z,9.50
2019-05-01T13:24:03.690Z,9.68
2019-05-01T13:26:36.298Z,9.30
2019-05-01T13:29:23.200Z,9.75
2019-05-01T13:31:53.486Z,9.23
2019-05-01T13:34:21.981Z,9.95
2019-05-01T13:37:02.385Z,9.38
2019-05-01T13:39:20.602Z,9.00
2019-05-01T13:41:49.090Z,9.35
2019-05-01T13:44:17.562Z,8.83
2019-05-01T13:46:46.271Z,9.68
2019-05-01T13:49:14.769Z,9.55
2019-05-01T13:51:43.196Z,8.75
2019-05-01T13:54:11.804Z,8.88
2019-05-01T13:56:40.219Z,8.65
2019-05-01T13:59:10.286Z,8.50
2019-05-01T14:01:38.912Z,9.60
2019-05-01T14:04:07.814Z,9.33
2019-05-01T14:06:36.302Z,9.73
2019-05-01T14:09:07.278Z,8.83
2019-05-01T14:11:35.697Z,9.93
2019-05-01T14:14:04.274Z,9.48
2019-05-01T14:16:32.843Z,9.20
2019-05-01T14:19:01.270Z,9.85
2019-05-01T14:21:31.326Z,9.48
2019-05-01T14:24:07.437Z,9.65
2019-05-01T14:26:35.855Z,8.93
2019-05-01T14:29:04.505Z,8.98
2019-05-01T14:31:32.954Z,9.28
2019-05-01T14:34:01.392Z,9.85
2019-05-01T14:36:29.823Z,9.53
2019-05-01T14:38:58.301Z,9.38
2019-05-01T14:41:26.731Z,9.23
2019-05-01T14:43:55.214Z,8.90
2019-05-01T14:46:23.689Z,9.08
2019-05-01T14:48:52.122Z,8.25
2019-05-01T14:51:21.797Z,9.83
2019-05-01T14:53:50.360Z,9.30
2019-05-01T14:56:18.874Z,9.35
2019-05-01T14:58:47.278Z,9.55
2019-05-01T15:01:15.863Z,8.70
2019-05-01T15:03:44.275Z,9.28
2019-05-01T15:06:12.688Z,8.18
2019-05-01T15:08:41.121Z,8.40
2019-05-01T15:11:09.558Z,8.98
2019-05-01T15:13:42.166Z,8.15
2019-05-01T15:16:28.686Z,8.78
2019-05-01T15:19:16.586Z,8.68
2019-05-01T15:21:45.009Z,9.00
2019-05-01T15:24:13.465Z,8.68
2019-05-01T15:26:41.877Z,9.23
2019-05-01T15:29:10.428Z,8.38
2019-05-01T15:31:38.842Z,8.80
2019-05-01T15:37:37.133Z,10.40
2019-05-01T15:40:09.099Z,8.70
2019-05-01T15:42:39.159Z,8.93
2019-05-01T15:45:08.164Z,9.18
2019-05-01T15:47:36.570Z,8.35
2019-05-01T15:50:07.588Z,7.97
2019-05-01T15:52:36.134Z,8.00
2019-05-01T15:55:07.057Z,8.03
2019-05-01T15:57:35.490Z,8.63
2019-05-01T16:00:07.475Z,8.58
2019-05-01T16:02:35.954Z,8.50
2019-05-01T16:05:06.213Z,8.10
2019-05-01T16:07:34.666Z,7.87
2019-05-01T16:10:06.698Z,8.80
2019-05-01T16:12:42.720Z,8.53
2019-05-01T16:15:13.106Z,9.35
2019-05-01T16:17:41.560Z,8.85
2019-05-01T16:20:10.154Z,8.18
2019-05-01T16:22:38.594Z,8.80
2019-05-01T16:25:07.730Z,8.23
2019-05-01T16:27:36.285Z,7.97
2019-05-01T16:30:06.558Z,8.75
2019-05-01T16:32:34.988Z,9.05
2019-05-01T16:35:03.726Z,8.95
2019-05-01T16:37:32.237Z,8.18
2019-05-01T16:40:05.113Z,9.00
2019-05-01T16:42:34.886Z,8.40
2019-05-01T16:45:04.182Z,8.60
2019-05-01T16:47:32.603Z,8.25
2019-05-01T16:50:01.283Z,9.10
2019-05-01T16:52:31.412Z,8.48
2019-05-01T16:54:59.977Z,8.80
2019-05-01T16:57:28.564Z,8.85
2019-05-01T16:59:57.010Z,9.03
2019-05-01T17:02:29.768Z,8.55
2019-05-01T17:05:14.803Z,9.30
2019-05-01T17:07:44.872Z,9.40
2019-05-01T17:10:17.581Z,9.73
2019-05-01T17:12:47.773Z,8.18
2019-05-01T17:15:18.072Z,8.95
2019-05-01T17:17:46.494Z,8.55
2019-05-01T17:20:15.294Z,9.13
2019-05-01T17:22:46.256Z,8.75
2019-05-01T17:25:14.159Z,9.08
2019-05-01T17:27:42.764Z,8.70
2019-05-01T17:30:18.946Z,8.60
2019-05-01T17:32:47.611Z,8.60
2019-05-01T17:35:16.115Z,9.15
2019-05-01T17:37:44.592Z,9.35
2019-05-01T17:40:13.290Z,9.10
2019-05-01T17:42:41.747Z,8.85
2019-05-01T17:45:10.280Z,8.53
2019-05-01T17:47:38.757Z,8.20
2019-05-01T17:50:07.414Z,8.08
2019-05-01T17:52:35.872Z,9.45
2019-05-01T17:55:07.030Z,9.63
2019-05-01T17:57:35.502Z,9.03
2019-05-01T18:00:26.618Z,12.20
2019-05-01T18:02:59.242Z,11.68
2019-05-01T18:05:31.846Z,11.22
2019-05-01T18:08:00.279Z,11.33
2019-05-01T18:10:28.730Z,12.60
2019-05-01T18:12:57.210Z,12.03
2019-05-01T18:15:25.644Z,14.03
2019-05-01T18:17:54.098Z,12.75
2019-05-01T18:20:22.627Z,13.08
2019-05-01T18:23:01.306Z,12.78
2019-05-01T18:25:43.374Z,13.38
2019-05-01T18:28:24.994Z,15.28
2019-05-01T18:30:56.461Z,13.30
2019-05-01T18:33:25.947Z,13.13
2019-05-01T18:35:52.982Z,13.30
2019-05-01T18:38:28.806Z,14.20
2019-05-01T18:40:58.866Z,13.25
2019-05-01T18:43:32.309Z,13.43
2019-05-01T18:45:58.171Z,14.40
2019-05-01T18:48:26.681Z,13.08
2019-05-01T18:50:56.416Z,13.85
2019-05-01T18:53:25.283Z,12.37
2019-05-01T18:55:53.870Z,13.32
2019-05-01T18:58:22.308Z,12.43
2019-05-01T19:00:50.939Z,13.93
2019-05-01T19:03:22.247Z,12.82
2019-05-01T19:05:49.510Z,11.93
2019-05-01T19:08:18.046Z,12.50
2019-05-01T19:10:46.572Z,11.75
2019-05-01T19:13:15.542Z,13.75
2019-05-01T19:15:44.398Z,12.30
2019-05-01T19:18:12.993Z,11.90
2019-05-01T19:20:41.423Z,13.68
2019-05-01T19:23:09.990Z,13.58
2019-05-01T19:25:38.425Z,13.83
2019-05-01T19:28:07.797Z,13.48
2019-05-01T19:30:36.690Z,13.48
2019-05-01T19:33:05.207Z,14.15
2019-05-01T19:35:34.344Z,13.38
2019-05-01T19:38:03.121Z,14.15
2019-05-01T19:40:32.778Z,15.45
2019-05-01T19:43:01.348Z,14.10
2019-05-01T19:45:29.962Z,15.25
2019-05-01T19:47:58.416Z,16.73
2019-05-01T19:50:26.896Z,14.85
2019-05-01T19:52:56.303Z,14.30
2019-05-01T19:55:24.814Z,14.90
2019-05-01T19:57:53.249Z,14.85
2019-05-01T20:00:50.652Z,15.05
2019-05-01T20:03:19.568Z,14.55
2019-05-01T20:05:48.135Z,15.23
2019-05-01T20:08:16.998Z,14.70
2019-05-01T20:10:45.574Z,14.83
2019-05-01T20:13:14.067Z,15.38
2019-05-01T20:15:42.623Z,14.25
2019-05-01T20:18:11.071Z,15.08
2019-05-01T20:20:39.554Z,14.87
2019-05-01T20:23:08.315Z,15.93
2019-05-01T20:25:36.796Z,15.78
2019-05-01T20:28:05.301Z,15.63
2019-05-01T20:30:34.031Z,15.35
2019-05-01T20:33:03.506Z,16.35
2019-05-01T20:35:34.326Z,16.00
2019-05-01T20:38:02.956Z,17.45
2019-05-01T20:40:31.370Z,16.07
2019-05-01T20:43:01.032Z,15.80
2019-05-01T20:45:30.322Z,16.62
2019-05-01T20:47:58.786Z,15.72
2019-05-01T20:50:27.245Z,16.55
2019-05-01T20:52:55.847Z,16.70
2019-05-01T20:55:24.293Z,16.27
2019-05-01T20:57:54.377Z,16.70
2019-05-01T21:00:24.792Z,16.85
2019-05-01T21:02:53.215Z,18.60
2019-05-01T21:05:28.997Z,17.17
2019-05-01T21:08:01.635Z,19.00
2019-05-01T21:10:36.006Z,17.23
2019-05-01T21:13:04.703Z,16.97
2019-05-01T21:15:33.148Z,17.90
2019-05-01T21:18:01.683Z,17.60
2019-05-01T21:20:30.107Z,16.67
2019-05-01T21:22:58.547Z,16.75
2019-05-01T21:25:27.130Z,17.52
2019-05-01T21:27:55.567Z,19.00
2019-05-01T21:30:23.990Z,18.00
2019-05-01T21:32:54.211Z,16.97
2019-05-01T21:35:23.986Z,17.55
2019-05-01T21:37:52.477Z,16.70
2019-05-01T21:40:23.028Z,17.43
2019-05-01T21:42:54.897Z,17.50
2019-05-01T21:45:22.993Z,18.62
2019-05-01T21:47:52.864Z,18.10
2019-05-01T21:50:22.784Z,18.47
2019-05-01T21:52:53.651Z,17.02
2019-05-01T21:55:25.679Z,18.57
2019-05-01T21:57:52.198Z,17.95
2019-05-01T22:00:24.863Z,17.33
2019-05-01T22:02:51.538Z,18.03
2019-05-01T22:05:20.039Z,18.60
2019-05-01T22:07:48.473Z,17.30
2019-05-01T22:10:16.986Z,20.05
2019-05-01T22:12:48.886Z,19.87
2019-05-01T22:15:18.481Z,17.95
2019-05-01T22:17:57.123Z,18.65
2019-05-01T22:20:27.240Z,18.07
2019-05-01T22:22:57.306Z,19.67
2019-05-01T22:25:27.552Z,18.00
2019-05-01T22:28:06.409Z,18.70
2019-05-01T22:30:36.574Z,17.60
2019-05-01T22:33:05.546Z,19.20
2019-05-01T22:35:41.511Z,19.48
2019-05-01T22:38:09.939Z,17.47
2019-05-01T22:40:40.069Z,18.73
2019-05-01T22:43:08.886Z,19.70
2019-05-01T22:45:37.316Z,17.87
2019-05-01T22:48:05.814Z,19.13
2019-05-01T22:50:34.357Z,17.73
2019-05-01T22:53:02.787Z,17.80
2019-05-01T22:55:31.359Z,17.73
2019-05-01T22:57:59.987Z,19.37
2019-05-01T23:00:33.418Z,18.13
2019-05-01T23:03:05.427Z,18.57
2019-05-01T23:05:33.658Z,19.75
2019-05-01T23:08:02.078Z,18.17
2019-05-01T23:10:31.247Z,18.93
2019-05-01T23:12:59.691Z,19.10
2019-05-01T23:15:29.816Z,19.10
2019-05-01T23:17:58.399Z,20.07
2019-05-01T23:20:26.885Z,18.67
2019-05-01T23:22:55.308Z,18.07
2019-05-01T23:25:23.784Z,17.30
2019-05-01T23:27:52.201Z,18.40
2019-05-01T23:30:22.313Z,17.52
2019-05-01T23:32:50.765Z,18.70
2019-05-01T23:35:19.206Z,20.05
2019-05-01T23:37:47.626Z,17.07
2019-05-01T23:40:16.961Z,18.77
2019-05-01T23:42:52.442Z,17.82
2019-05-01T23:45:15.812Z,18.10
2019-05-01T23:47:44.371Z,18.53
2019-05-01T23:50:13.252Z,17.53
2019-05-01T23:52:41.735Z,17.98
2019-05-01T23:55:11.169Z,17.60
2019-05-01T23:57:39.609Z,17.10
